createdAt,value
2023-09-08T00:01:35.401Z,101762.88
2023-09-08T00:04:03.845Z,101754.09
2023-09-08T00:06:32.319Z,101751.78
2023-09-08T00:09:00.483Z,101763.69
2023-09-08T00:11:28.676Z,101753.06
2023-09-08T00:13:56.867Z,101751.63
2023-09-08T00:16:25.223Z,101741.97
2023-09-08T00:18:54.172Z,101746.69
2023-09-08T00:21:22.351Z,101753.63
2023-09-08T00:23:50.534Z,101751.88
2023-09-08T00:26:18.760Z,101753.75
2023-09-08T00:28:47.431Z,101765.06
2023-09-08T00:31:15.836Z,101756.28
2023-09-08T00:33:45.557Z,101762.13
2023-09-08T00:36:13.836Z,101762.56
2023-09-08T00:38:42.654Z,101762.69
2023-09-08T00:41:10.998Z,101757.66
2023-09-08T00:43:39.271Z,101762.25
2023-09-08T00:46:08.934Z,101757.66
2023-09-08T00:48:38.940Z,101766.97
2023-09-08T00:51:08.935Z,101762.66
2023-09-08T00:53:37.463Z,101761.78
2023-09-08T00:56:06.634Z,101759.34
2023-09-08T00:58:36.020Z,101767.75
2023-09-08T01:01:07.199Z,101755.28
2023-09-08T01:03:35.534Z,101751.06
2023-09-08T01:06:04.328Z,101754.22
2023-09-08T01:08:33.277Z,101747.03
2023-09-08T01:11:02.096Z,101749.78
2023-09-08T01:13:30.742Z,101751.47
2023-09-08T01:15:59.105Z,101746.03
2023-09-08T01:18:28.720Z,101746.31
2023-09-08T01:21:08.452Z,101752.75
2023-09-08T01:23:58.846Z,101752.63
2023-09-08T01:26:32.963Z,101748.16
2023-09-08T01:29:01.961Z,101754.75
2023-09-08T01:31:30.366Z,101756.63
2023-09-08T01:34:07.911Z,101758.88
2023-09-08T01:36:37.123Z,101749.22
2023-09-08T01:39:05.426Z,101755.81
2023-09-08T01:41:33.828Z,101754.63
2023-09-08T01:44:06.482Z,101752.91
2023-09-08T01:46:36.512Z,101757.63
2023-09-08T01:49:04.846Z,101759.34
2023-09-08T01:51:33.140Z,101753.28
2023-09-08T01:54:02.890Z,101751.72
2023-09-08T01:56:31.114Z,101753.56
2023-09-08T01:59:00.519Z,101758.41
2023-09-08T02:01:29.385Z,101750.63
2023-09-08T02:03:57.630Z,101754.25
2023-09-08T02:06:25.859Z,101749.63
2023-09-08T02:08:54.735Z,101752.50
2023-09-08T02:11:23.051Z,101749.06
2023-09-08T02:13:51.258Z,101762.69
2023-09-08T02:16:19.633Z,101752.16
2023-09-08T02:18:47.792Z,101747.84
2023-09-08T02:21:15.980Z,101740.78
2023-09-08T02:23:44.825Z,101748.13
2023-09-08T02:26:13.089Z,101754.69
2023-09-08T02:28:41.293Z,101743.16
2023-09-08T02:31:09.586Z,101739.69
2023-09-08T02:33:37.837Z,101739.84
2023-09-08T02:36:07.388Z,101744.19
2023-09-08T02:38:37.504Z,101741.44
2023-09-08T02:41:06.393Z,101734.25
2023-09-08T02:43:34.591Z,101738.09
2023-09-08T02:46:02.941Z,101745.28
2023-09-08T02:48:32.633Z,101743.53
2023-09-08T02:51:00.937Z,101747.25
2023-09-08T02:53:30.009Z,101742.66
2023-09-08T02:55:59.134Z,101746.53
2023-09-08T02:58:28.911Z,101746.53
2023-09-08T03:00:58.022Z,101743.94
2023-09-08T03:03:26.292Z,101749.50
2023-09-08T03:06:01.626Z,101747.03
2023-09-08T03:08:30.395Z,101753.63
2023-09-08T03:11:00.627Z,101742.13
2023-09-08T03:13:30.316Z,101751.25
2023-09-08T03:15:58.609Z,101750.78
2023-09-08T03:18:26.845Z,101741.91
2023-09-08T03:20:55.098Z,101740.91
2023-09-08T03:23:24.053Z,101747.50
2023-09-08T03:25:52.348Z,101745.88
2023-09-08T03:28:20.516Z,101742.28
2023-09-08T03:30:48.778Z,101737.69
2023-09-08T03:33:17.402Z,101740.56
2023-09-08T03:35:45.827Z,101736.81
2023-09-08T03:38:14.138Z,101732.25
2023-09-08T03:40:43.856Z,101735.84
2023-09-08T03:43:12.301Z,101735.09
2023-09-08T03:45:40.588Z,101732.25
2023-09-08T03:48:08.954Z,101737.56
2023-09-08T03:50:37.427Z,101732.00
2023-09-08T03:53:05.996Z,101728.41
2023-09-08T03:55:34.610Z,101728.28
2023-09-08T03:58:02.817Z,101724.69
2023-09-08T04:00:31.224Z,101716.50
2023-09-08T04:02:59.525Z,101721.09
2023-09-08T04:05:27.885Z,101717.63
2023-09-08T04:07:56.235Z,101723.06
2023-09-08T04:10:24.434Z,101716.78
2023-09-08T04:12:52.996Z,101720.34
2023-09-08T04:15:21.901Z,101717.53
2023-09-08T04:17:50.279Z,101725.69
2023-09-08T04:20:19.761Z,101717.63
2023-09-08T04:22:48.937Z,101716.03
2023-09-08T04:25:17.209Z,101716.16
2023-09-08T04:27:45.900Z,101716.16
2023-09-08T04:30:14.931Z,101721.75
2023-09-08T04:32:43.964Z,101719.78
2023-09-08T04:35:12.815Z,101723.47
2023-09-08T04:37:41.384Z,101719.28
2023-09-08T04:40:09.935Z,101717.69
2023-09-08T04:42:38.938Z,101719.78
2023-09-08T04:45:08.948Z,101723.78
2023-09-08T04:47:38.882Z,101716.84
2023-09-08T04:50:07.828Z,101726.25
2023-09-08T04:52:36.436Z,101721.94
2023-09-08T04:55:06.010Z,101725.06
2023-09-08T04:57:34.636Z,101718.75
2023-09-08T05:00:04.316Z,101724.31
2023-09-08T05:02:32.706Z,101724.19
2023-09-08T05:05:01.440Z,101725.06
2023-09-08T05:07:29.999Z,101726.91
2023-09-08T05:09:58.575Z,101724.06
2023-09-08T05:12:30.613Z,101723.19
2023-09-08T05:15:07.094Z,101722.22
2023-09-08T05:17:37.502Z,101723.66
2023-09-08T05:20:06.289Z,101715.50
2023-09-08T05:22:34.764Z,101723.19
2023-09-08T05:25:03.182Z,101715.75
2023-09-08T05:27:33.000Z,101724.41
2023-09-08T05:30:01.394Z,101728.44
2023-09-08T05:32:29.830Z,101734.50
2023-09-08T05:34:58.061Z,101726.06
2023-09-08T05:37:26.244Z,101731.00
2023-09-08T05:39:54.646Z,101733.19
2023-09-08T05:42:22.903Z,101731.81
2023-09-08T05:44:52.168Z,101746.66
2023-09-08T05:47:20.564Z,101743.44
2023-09-08T05:49:48.959Z,101735.88
2023-09-08T05:52:17.207Z,101739.06
2023-09-08T05:54:46.725Z,101746.34
2023-09-08T05:57:14.960Z,101740.47
2023-09-08T05:59:43.296Z,101759.63
2023-09-08T06:02:11.631Z,101753.63
2023-09-08T06:04:39.941Z,101750.09
2023-09-08T06:07:09.823Z,101749.31
2023-09-08T06:09:38.291Z,101751.22
2023-09-08T06:12:07.119Z,101760.72
2023-09-08T06:14:35.446Z,101759.94
2023-09-08T06:17:03.668Z,101757.66
2023-09-08T06:19:32.166Z,101754.38
2023-09-08T06:22:00.396Z,101757.31
2023-09-08T06:24:29.181Z,101755.63
2023-09-08T06:26:57.857Z,101763.00
2023-09-08T06:29:26.963Z,101755.69
2023-09-08T06:31:55.211Z,101758.72
2023-09-08T06:34:24.477Z,101752.41
2023-09-08T06:36:53.034Z,101750.72
2023-09-08T06:39:21.301Z,101754.63
2023-09-08T06:41:49.610Z,101750.72
2023-09-08T06:44:19.283Z,101750.91
2023-09-08T06:46:48.185Z,101762.81
2023-09-08T06:49:16.754Z,101761.97
2023-09-08T06:51:44.987Z,101757.41
2023-09-08T06:54:13.285Z,101761.84
2023-09-08T06:56:44.527Z,101757.38
2023-09-08T06:59:13.355Z,101757.38
2023-09-08T07:01:41.711Z,101761.72
2023-09-08T07:04:12.343Z,101759.69
2023-09-08T07:06:43.117Z,101760.44
2023-09-08T07:09:12.295Z,101760.56
2023-09-08T07:11:40.698Z,101764.56
2023-09-08T07:14:09.525Z,101777.00
2023-09-08T07:16:38.725Z,101776.41
2023-09-08T07:19:07.828Z,101768.59
2023-09-08T07:21:35.773Z,101764.06
2023-09-08T07:24:04.073Z,101774.25
2023-09-08T07:26:32.315Z,101773.25
2023-09-08T07:29:00.599Z,101774.09
2023-09-08T07:31:28.868Z,101776.34
2023-09-08T07:33:57.173Z,101770.63
2023-09-08T07:36:25.440Z,101774.69
2023-09-08T07:38:55.834Z,101774.97
2023-09-08T07:41:24.887Z,101781.84
2023-09-08T07:43:53.160Z,101779.47
2023-09-08T07:46:25.405Z,101784.06
2023-09-08T07:48:54.054Z,101777.53
2023-09-08T07:51:22.267Z,101779.50
2023-09-08T07:53:50.611Z,101783.91
2023-09-08T07:56:18.972Z,101775.16
2023-09-08T07:58:47.300Z,101776.41
2023-09-08T08:01:16.584Z,101782.44
2023-09-08T08:03:44.952Z,101778.34
2023-09-08T08:06:13.256Z,101781.63
2023-09-08T08:08:41.741Z,101770.81
2023-09-08T08:11:13.617Z,101768.06
2023-09-08T08:13:41.522Z,101773.41
2023-09-08T08:16:09.821Z,101779.50
2023-09-08T08:18:38.410Z,101768.56
2023-09-08T08:21:07.084Z,101778.56
2023-09-08T08:23:35.571Z,101780.91
2023-09-08T08:26:04.395Z,101768.47
2023-09-08T08:28:32.797Z,101765.53
2023-09-08T08:31:01.407Z,101759.00
2023-09-08T08:33:30.577Z,101746.31
2023-09-08T08:36:19.979Z,101754.00
2023-09-08T08:38:48.302Z,101752.47
2023-09-08T08:41:16.847Z,101750.34
2023-09-08T08:43:46.208Z,101757.06
2023-09-08T08:46:16.036Z,101758.41
2023-09-08T08:48:46.042Z,101748.25
2023-09-08T08:51:15.296Z,101740.06
2023-09-08T08:53:44.357Z,101740.88
2023-09-08T08:56:12.623Z,101756.66
2023-09-08T08:58:41.860Z,101747.28
2023-09-08T09:01:12.984Z,101750.53
2023-09-08T09:03:44.129Z,101746.72
2023-09-08T09:06:16.103Z,101752.00
2023-09-08T09:08:48.299Z,101751.13
2023-09-08T09:11:17.492Z,101749.91
2023-09-08T09:13:45.785Z,101748.25
2023-09-08T09:16:16.421Z,101744.09
2023-09-08T09:19:01.759Z,101756.03
2023-09-08T09:21:44.877Z,101742.72
2023-09-08T09:24:21.311Z,101739.41
2023-09-08T09:26:54.584Z,101741.44
2023-09-08T09:29:22.845Z,101737.13
2023-09-08T09:32:07.200Z,101734.94
2023-09-08T09:34:36.829Z,101737.66
2023-09-08T09:37:06.842Z,101733.88
2023-09-08T09:39:35.030Z,101738.81
2023-09-08T09:42:05.573Z,101735.06
2023-09-08T09:44:33.762Z,101737.31
2023-09-08T09:47:03.059Z,101734.00
2023-09-08T09:49:33.403Z,101738.00
2023-09-08T09:52:01.797Z,101733.34
2023-09-08T09:54:31.349Z,101737.03
2023-09-08T09:56:59.696Z,101726.91
2023-09-08T09:59:28.800Z,101735.97
2023-09-08T10:01:57.298Z,101721.00
2023-09-08T10:04:26.263Z,101728.19
2023-09-08T10:06:55.271Z,101721.56
2023-09-08T10:09:24.162Z,101725.84
2023-09-08T10:11:52.618Z,101727.16
2023-09-08T10:14:20.980Z,101717.38
2023-09-08T10:16:53.886Z,101717.25
2023-09-08T10:19:23.913Z,101718.09
2023-09-08T10:21:56.494Z,101720.19
2023-09-08T10:24:30.068Z,101719.63
2023-09-08T10:27:06.715Z,101709.22
2023-09-08T10:29:35.051Z,101713.44
2023-09-08T10:32:04.757Z,101710.31
2023-09-08T10:34:35.611Z,101708.63
2023-09-08T10:37:06.982Z,101715.38
2023-09-08T10:39:40.833Z,101710.63
2023-09-08T10:42:20.934Z,101707.88
2023-09-08T10:44:49.161Z,101699.16
2023-09-08T10:47:32.090Z,101699.97
2023-09-08T10:50:01.583Z,101696.56
2023-09-08T10:52:29.992Z,101694.31
2023-09-08T10:54:58.359Z,101696.03
2023-09-08T10:57:31.548Z,101695.38
2023-09-08T11:00:21.400Z,101700.56
2023-09-08T11:02:52.851Z,101701.00
2023-09-08T11:05:22.579Z,101700.38
2023-09-08T11:07:50.973Z,101695.13
2023-09-08T11:10:19.271Z,101695.75
2023-09-08T11:12:47.587Z,101700.41
2023-09-08T11:15:15.790Z,101701.38
2023-09-08T11:17:44.172Z,101701.13
2023-09-08T11:20:13.875Z,101701.25
2023-09-08T11:22:42.476Z,101700.66
2023-09-08T11:25:13.014Z,101696.63
2023-09-08T11:27:41.679Z,101704.28
2023-09-08T11:30:10.829Z,101696.19
2023-09-08T11:32:39.213Z,101697.13
2023-09-08T11:35:10.619Z,101699.31
2023-09-08T11:37:40.178Z,101693.81
2023-09-08T11:40:13.943Z,101701.41
2023-09-08T11:42:47.029Z,101693.59
2023-09-08T11:45:19.431Z,101698.75
2023-09-08T11:47:47.698Z,101693.97
2023-09-08T11:50:19.482Z,101697.44
2023-09-08T11:52:52.795Z,101697.59
2023-09-08T11:55:24.369Z,101693.41
2023-09-08T11:58:17.603Z,101693.34
2023-09-08T12:00:49.130Z,101693.63
2023-09-08T12:03:18.119Z,101694.16
2023-09-08T12:05:52.436Z,101684.97
2023-09-08T12:08:20.753Z,101687.03
2023-09-08T12:10:49.047Z,101695.66
2023-09-08T12:13:24.160Z,101682.72
2023-09-08T12:15:52.572Z,101691.41
2023-09-08T12:18:20.859Z,101678.91
2023-09-08T12:21:04.674Z,101683.84
2023-09-08T12:23:32.860Z,101692.88
2023-09-08T12:26:01.356Z,101683.22
2023-09-08T12:28:33.199Z,101682.22
2023-09-08T12:31:01.476Z,101692.81
2023-09-08T12:33:29.698Z,101679.75
2023-09-08T12:35:57.968Z,101684.41
2023-09-08T12:38:34.652Z,101674.56
2023-09-08T12:41:03.177Z,101668.44
2023-09-08T12:43:31.538Z,101669.53
2023-09-08T12:45:59.881Z,101680.00
2023-09-08T12:48:28.153Z,101674.09
2023-09-08T12:50:56.434Z,101676.59
2023-09-08T12:53:24.804Z,101672.84
2023-09-08T12:55:53.067Z,101672.00
2023-09-08T12:58:21.899Z,101658.97
2023-09-08T13:00:50.159Z,101668.44
2023-09-08T13:03:18.399Z,101662.63
2023-09-08T13:05:46.733Z,101660.69
2023-09-08T13:08:16.672Z,101657.72
2023-09-08T13:10:44.971Z,101665.47
2023-09-08T13:13:13.302Z,101663.06
2023-09-08T13:15:41.565Z,101656.94
2023-09-08T13:18:09.973Z,101653.81
2023-09-08T13:20:38.225Z,101657.66
2023-09-08T13:23:06.493Z,101651.38
2023-09-08T13:25:34.716Z,101652.53
2023-09-08T13:28:03.086Z,101648.22
2023-09-08T13:30:31.342Z,101641.53
2023-09-08T13:32:59.731Z,101642.16
2023-09-08T13:35:27.955Z,101644.25
2023-09-08T13:37:56.132Z,101637.50
2023-09-08T13:40:24.437Z,101636.81
2023-09-08T13:42:52.847Z,101636.63
2023-09-08T13:45:21.130Z,101639.66
2023-09-08T13:47:50.535Z,101642.53
2023-09-08T13:50:20.841Z,101642.09
2023-09-08T13:52:51.451Z,101636.50
2023-09-08T13:55:37.098Z,101633.56
2023-09-08T13:58:09.174Z,101627.66
2023-09-08T14:00:45.011Z,101629.34
2023-09-08T14:03:15.231Z,101633.56
2023-09-08T14:05:46.229Z,101630.19
2023-09-08T14:08:20.167Z,101630.34
2023-09-08T14:13:27.562Z,101628.28
2023-09-08T14:15:56.426Z,101620.63
2023-09-08T14:18:24.764Z,101623.03
2023-09-08T14:20:52.977Z,101622.19
2023-09-08T14:23:21.242Z,101630.34
2023-09-08T14:25:49.474Z,101624.19
2023-09-08T14:28:17.649Z,101617.13
2023-09-08T14:30:45.919Z,101627.88
2023-09-08T14:33:14.176Z,101624.00
2023-09-08T14:35:47.172Z,101614.84
2023-09-08T14:38:17.877Z,101619.81
2023-09-08T14:40:47.165Z,101619.19
2023-09-08T14:43:15.345Z,101613.84
2023-09-08T14:45:46.752Z,101620.13
2023-09-08T14:48:15.536Z,101617.38
2023-09-08T14:50:43.904Z,101611.22
2023-09-08T14:53:12.203Z,101615.03
2023-09-08T14:55:45.262Z,101607.16
2023-09-08T14:58:13.631Z,101605.53
2023-09-08T15:00:42.384Z,101612.53
2023-09-08T15:03:10.695Z,101611.53
2023-09-08T15:05:38.940Z,101608.81
2023-09-08T15:08:07.281Z,101619.53
2023-09-08T15:10:35.490Z,101614.59
2023-09-08T15:13:04.634Z,101608.75
2023-09-08T15:15:32.900Z,101607.88
2023-09-08T15:18:01.238Z,101605.50
2023-09-08T15:20:29.562Z,101605.25
2023-09-08T15:22:57.958Z,101608.91
2023-09-08T15:25:26.211Z,101602.88
2023-09-08T15:27:54.449Z,101605.66
2023-09-08T15:30:22.836Z,101611.06
2023-09-08T15:32:51.192Z,101602.69
2023-09-08T15:35:19.498Z,101598.59
2023-09-08T15:37:47.788Z,101597.59
2023-09-08T15:40:16.117Z,101595.69
2023-09-08T15:42:44.736Z,101592.03
2023-09-08T15:45:13.404Z,101597.66
2023-09-08T15:47:41.679Z,101596.03
2023-09-08T15:50:11.627Z,101595.44
2023-09-08T15:52:39.866Z,101595.00
2023-09-08T15:55:08.371Z,101598.69
2023-09-08T15:57:36.551Z,101600.41
2023-09-08T16:00:04.999Z,101596.59
2023-09-08T16:02:37.071Z,101596.19
2023-09-08T16:05:05.991Z,101600.13
2023-09-08T16:07:34.263Z,101596.94
2023-09-08T16:10:02.507Z,101594.81
2023-09-08T16:12:32.837Z,101593.78
2023-09-08T16:15:03.250Z,101591.81
2023-09-08T16:17:31.592Z,101587.72
2023-09-08T16:20:00.536Z,101595.63
2023-09-08T16:22:28.720Z,101598.41
2023-09-08T16:24:57.203Z,101593.69
2023-09-08T16:27:27.667Z,101587.06
2023-09-08T16:29:55.845Z,101587.06
2023-09-08T16:32:24.148Z,101589.00
2023-09-08T16:34:53.064Z,101579.84
2023-09-08T16:37:21.290Z,101598.31
2023-09-08T16:39:49.521Z,101593.00
2023-09-08T16:42:17.785Z,101585.72
2023-09-08T16:44:46.117Z,101587.72
2023-09-08T16:47:14.319Z,101584.06
2023-09-08T16:49:42.897Z,101587.47
2023-09-08T16:52:11.174Z,101585.38
2023-09-08T16:54:39.402Z,101590.53
2023-09-08T16:57:07.752Z,101592.69
2023-09-08T16:59:36.048Z,101594.78
2023-09-08T17:02:04.450Z,101598.81
2023-09-08T17:04:32.785Z,101589.00
2023-09-08T17:07:01.121Z,101588.50
2023-09-08T17:09:29.775Z,101592.72
2023-09-08T17:11:57.917Z,101598.66
2023-09-08T17:14:25.776Z,101590.91
2023-09-08T17:16:54.218Z,101589.78
2023-09-08T17:19:22.492Z,101586.47
2023-09-08T17:21:51.831Z,101588.34
2023-09-08T17:24:20.262Z,101596.00
2023-09-08T17:26:48.456Z,101590.19
2023-09-08T17:29:16.321Z,101597.16
2023-09-08T17:31:44.548Z,101590.91
2023-09-08T17:34:21.143Z,101593.94
2023-09-08T17:36:53.982Z,101591.91
2023-09-08T17:39:22.231Z,101592.69
2023-09-08T17:41:50.312Z,101597.69
2023-09-08T17:44:18.469Z,101594.41
2023-09-08T17:46:48.866Z,101598.13
2023-09-08T17:49:17.297Z,101596.72
2023-09-08T17:51:45.543Z,101602.56
2023-09-08T17:54:13.507Z,101603.56
2023-09-08T17:56:41.745Z,101605.78
2023-09-08T17:59:09.588Z,101604.19
2023-09-08T18:01:39.108Z,101610.03
2023-09-08T18:04:07.936Z,101604.63
2023-09-08T18:06:36.273Z,101605.53
2023-09-08T18:09:04.782Z,101620.03
2023-09-08T18:11:34.126Z,101617.34
2023-09-08T18:14:02.380Z,101621.09
2023-09-08T18:16:30.187Z,101617.75
2023-09-08T18:18:58.450Z,101617.66
2023-09-08T18:21:26.642Z,101616.69
2023-09-08T18:23:54.866Z,101621.44
2023-09-08T18:26:23.241Z,101617.84
2023-09-08T18:28:51.475Z,101623.47
2023-09-08T18:31:19.740Z,101626.13
2023-09-08T18:33:47.664Z,101630.66
2023-09-08T18:36:15.830Z,101625.91
2023-09-08T18:38:44.018Z,101632.16
2023-09-08T18:41:12.306Z,101635.66
2023-09-08T18:43:40.193Z,101631.06
2023-09-08T18:46:08.414Z,101638.16
2023-09-08T18:48:37.500Z,101635.09
2023-09-08T18:51:05.756Z,101643.25
2023-09-08T18:53:35.900Z,101643.28
2023-09-08T18:56:05.233Z,101653.31
2023-09-08T18:58:40.176Z,101654.91
2023-09-08T19:01:08.744Z,101656.50
2023-09-08T19:03:43.854Z,101655.13
2023-09-08T19:06:12.159Z,101659.28
2023-09-08T19:08:40.623Z,101661.88
2023-09-08T19:11:08.894Z,101655.88
2023-09-08T19:13:37.454Z,101659.38
2023-09-08T19:16:05.944Z,101659.91
2023-09-08T19:18:34.253Z,101661.66
2023-09-08T19:21:02.445Z,101661.34
2023-09-08T19:23:31.216Z,101662.03
2023-09-08T19:25:59.435Z,101657.00
2023-09-08T19:28:27.622Z,101658.75
2023-09-08T19:30:56.059Z,101655.53
2023-09-08T19:33:24.493Z,101656.53
2023-09-08T19:35:52.656Z,101666.69
2023-09-08T19:38:20.862Z,101657.44
2023-09-08T19:40:49.181Z,101660.69
2023-09-08T19:43:17.415Z,101657.28
2023-09-08T19:45:45.655Z,101655.72
2023-09-08T19:48:14.054Z,101659.84
2023-09-08T19:50:45.699Z,101664.38
2023-09-08T19:53:13.927Z,101660.59
2023-09-08T19:55:42.220Z,101659.19
2023-09-08T19:58:10.510Z,101655.28
2023-09-08T20:00:39.893Z,101653.72
2023-09-08T20:03:08.126Z,101656.47
2023-09-08T20:05:36.493Z,101654.25
2023-09-08T20:08:04.766Z,101657.13
2023-09-08T20:10:33.277Z,101655.59
2023-09-08T20:13:03.060Z,101651.63
2023-09-08T20:15:31.318Z,101653.72
2023-09-08T20:18:00.446Z,101654.53
2023-09-08T20:20:28.810Z,101651.78
2023-09-08T20:22:57.015Z,101654.53
2023-09-08T20:25:25.326Z,101656.47
2023-09-08T20:27:53.496Z,101657.28
2023-09-08T20:30:22.037Z,101652.84
2023-09-08T20:32:50.310Z,101649.41
2023-09-08T20:35:18.779Z,101654.19
2023-09-08T20:37:46.683Z,101652.81
2023-09-08T20:40:14.962Z,101651.28
2023-09-08T20:42:43.136Z,101644.56
2023-09-08T20:45:11.569Z,101646.97
2023-09-08T20:47:39.491Z,101646.44
2023-09-08T20:50:08.132Z,101643.03
2023-09-08T20:52:38.309Z,101639.06
2023-09-08T20:55:07.104Z,101641.09
2023-09-08T20:57:35.411Z,101639.06
2023-09-08T21:00:05.158Z,101638.34
2023-09-08T21:02:33.551Z,101647.78
2023-09-08T21:05:01.791Z,101642.97
2023-09-08T21:07:30.043Z,101642.44
2023-09-08T21:09:58.229Z,101645.66
2023-09-08T21:12:26.794Z,101635.19
2023-09-08T21:14:57.445Z,101638.78
2023-09-08T21:17:25.685Z,101636.72
2023-09-08T21:19:53.948Z,101632.72
2023-09-08T21:22:22.242Z,101632.19
2023-09-08T21:24:50.422Z,101628.25
2023-09-08T21:27:18.677Z,101641.28
2023-09-08T21:29:47.445Z,101637.84
2023-09-08T21:32:15.793Z,101630.94
2023-09-08T21:34:43.999Z,101632.50
2023-09-08T21:37:12.222Z,101636.75
2023-09-08T21:39:40.455Z,101639.84
2023-09-08T21:42:08.801Z,101638.25
2023-09-08T21:44:37.009Z,101637.72
2023-09-08T21:47:05.565Z,101640.09
2023-09-08T21:49:33.837Z,101642.84
2023-09-08T21:52:02.162Z,101643.88
2023-09-08T21:54:30.378Z,101653.34
2023-09-08T21:56:58.599Z,101642.97
2023-09-08T21:59:26.860Z,101652.72
2023-09-08T22:01:55.985Z,101648.59
2023-09-08T22:04:24.618Z,101646.31
2023-09-08T22:06:54.053Z,101653.16
2023-09-08T22:09:23.156Z,101652.44
2023-09-08T22:11:51.661Z,101651.06
2023-09-08T22:14:19.650Z,101652.22
2023-09-08T22:16:47.973Z,101651.69
2023-09-08T22:19:16.410Z,101653.19
2023-09-08T22:21:45.715Z,101655.25
2023-09-08T22:24:14.066Z,101653.50
2023-09-08T22:26:42.270Z,101654.72
2023-09-08T22:29:10.564Z,101661.69
2023-09-08T22:31:38.850Z,101659.09
2023-09-08T22:34:07.131Z,101645.72
2023-09-08T22:36:35.386Z,101652.53
2023-09-08T22:39:05.811Z,101650.28
2023-09-08T22:41:34.019Z,101653.34
2023-09-08T22:44:02.226Z,101649.19
2023-09-08T22:46:30.702Z,101639.56
2023-09-08T22:48:58.908Z,101649.13
2023-09-08T22:51:27.169Z,101647.53
2023-09-08T22:53:55.446Z,101645.13
2023-09-08T22:56:23.760Z,101645.28
2023-09-08T22:58:52.119Z,101641.16
2023-09-08T23:01:20.413Z,101641.44
2023-09-08T23:03:48.790Z,101647.25
2023-09-08T23:06:17.138Z,101642.91
2023-09-08T23:08:45.317Z,101646.66
2023-09-08T23:11:13.584Z,101638.75
2023-09-08T23:13:41.965Z,101631.56
2023-09-08T23:16:14.233Z,101633.44
2023-09-08T23:18:42.648Z,101636.09
2023-09-08T23:21:11.009Z,101642.03
2023-09-08T23:23:39.478Z,101632.41
2023-09-08T23:26:07.867Z,101635.31
2023-09-08T23:28:37.716Z,101635.63
2023-09-08T23:31:05.979Z,101644.16
2023-09-08T23:33:34.289Z,101643.06
2023-09-08T23:36:02.537Z,101639.63
2023-09-08T23:38:30.793Z,101643.34
2023-09-08T23:40:58.986Z,101640.59
2023-09-08T23:43:27.747Z,101636.63
2023-09-08T23:45:56.066Z,101643.97
2023-09-08T23:48:24.243Z,101638.81
2023-09-08T23:51:00.133Z,101634.22
2023-09-08T23:53:29.672Z,101636.00
2023-09-08T23:55:58.087Z,101634.41
2023-09-08T23:58:26.338Z,101631.97
